createdAt,value
2024-04-25T00:02:55.792Z,46.20
2024-04-25T00:05:58.437Z,46.25
2024-04-25T00:09:00.882Z,46.22
2024-04-25T00:12:03.272Z,46.22
2024-04-25T00:15:06.299Z,46.22
2024-04-25T00:18:08.647Z,46.27
2024-04-25T00:21:10.946Z,46.24
2024-04-25T00:24:13.375Z,46.28
2024-04-25T00:27:15.913Z,46.28
2024-04-25T00:30:18.232Z,46.33
2024-04-25T00:33:20.694Z,46.35
2024-04-25T00:36:25.480Z,46.33
2024-04-25T00:39:28.222Z,46.33
2024-04-25T00:42:30.663Z,46.32
2024-04-25T00:45:36.099Z,46.37
2024-04-25T00:48:38.998Z,46.37
2024-04-25T00:51:41.754Z,46.41
2024-04-25T00:54:44.727Z,46.42
2024-04-25T00:57:47.580Z,46.40
2024-04-25T01:00:50.672Z,46.45
2024-04-25T01:03:54.411Z,46.41
2024-04-25T01:06:58.971Z,46.47
2024-04-25T01:10:01.496Z,46.47
2024-04-25T01:13:04.038Z,46.49
2024-04-25T01:16:08.779Z,46.52
2024-04-25T01:19:11.134Z,46.50
2024-04-25T01:22:13.994Z,46.48
2024-04-25T01:25:17.668Z,46.49
2024-04-25T01:28:21.789Z,46.52
2024-04-25T01:31:26.411Z,46.54
2024-04-25T01:34:29.547Z,46.59
2024-04-25T01:37:32.273Z,46.60
2024-04-25T01:40:34.582Z,46.58
2024-04-25T01:43:36.993Z,46.61
2024-04-25T01:46:40.920Z,46.62
2024-04-25T01:49:44.116Z,46.62
2024-04-25T01:52:46.651Z,46.69
2024-04-25T01:55:49.184Z,46.67
2024-04-25T01:58:54.575Z,46.68
2024-04-25T02:01:56.982Z,46.70
2024-04-25T02:04:59.296Z,46.68
2024-04-25T02:08:01.922Z,46.72
2024-04-25T02:11:06.970Z,46.73
2024-04-25T02:14:09.324Z,46.70
2024-04-25T02:17:12.079Z,46.71
2024-04-25T02:20:33.227Z,46.68
2024-04-25T02:23:54.117Z,46.71
2024-04-25T02:26:56.566Z,46.73
2024-04-25T02:29:59.342Z,46.75
2024-04-25T02:33:01.746Z,46.73
2024-04-25T02:36:04.284Z,46.73
2024-04-25T02:39:07.958Z,46.78
2024-04-25T02:42:10.240Z,46.81
2024-04-25T02:45:12.528Z,46.83
2024-04-25T02:48:15.060Z,46.82
2024-04-25T02:51:17.577Z,46.83
2024-04-25T02:54:20.016Z,46.78
2024-04-25T02:57:23.509Z,46.84
2024-04-25T03:00:25.908Z,46.85
2024-04-25T03:03:29.076Z,46.89
2024-04-25T03:06:31.607Z,46.83
2024-04-25T03:09:37.421Z,46.89
2024-04-25T03:12:39.918Z,46.91
2024-04-25T03:15:42.397Z,46.89
2024-04-25T03:18:44.706Z,46.86
2024-04-25T03:21:47.288Z,46.91
2024-04-25T03:24:49.548Z,46.89
2024-04-25T03:27:51.862Z,46.90
2024-04-25T03:30:54.125Z,46.93
2024-04-25T03:33:56.387Z,46.92
2024-04-25T03:36:59.135Z,46.96
2024-04-25T03:40:01.580Z,46.89
2024-04-25T03:43:04.991Z,46.99
2024-04-25T03:46:07.963Z,47.03
2024-04-25T03:49:11.484Z,47.05
2024-04-25T03:52:13.903Z,47.05
2024-04-25T03:55:16.829Z,47.06
2024-04-25T03:58:19.094Z,47.08
2024-04-25T04:01:21.623Z,47.08
2024-04-25T04:04:24.047Z,47.13
2024-04-25T04:07:28.279Z,47.09
2024-04-25T04:10:30.638Z,47.15
2024-04-25T04:13:36.700Z,46.92
2024-04-25T04:16:41.999Z,46.71
2024-04-25T04:19:44.298Z,46.65
2024-04-25T04:22:49.471Z,46.57
2024-04-25T04:25:51.947Z,46.54
2024-04-25T04:28:54.673Z,46.48
2024-04-25T04:31:57.155Z,46.35
2024-04-25T04:34:59.585Z,46.24
2024-04-25T04:38:01.818Z,46.25
2024-04-25T04:41:04.402Z,46.24
2024-04-25T04:44:06.954Z,46.08
2024-04-25T04:47:11.302Z,45.96
2024-04-25T04:50:16.990Z,45.93
2024-04-25T04:53:19.409Z,46.19
2024-04-25T04:56:21.965Z,46.18
2024-04-25T04:59:24.360Z,45.90
2024-04-25T05:02:27.047Z,45.76
2024-04-25T05:05:30.075Z,45.73
2024-04-25T05:08:36.343Z,45.82
2024-04-25T05:11:38.756Z,45.87
2024-04-25T05:14:41.310Z,45.92
2024-04-25T05:17:44.385Z,45.96
2024-04-25T05:20:46.990Z,45.99
2024-04-25T05:23:49.413Z,45.94
2024-04-25T05:26:51.901Z,45.77
2024-04-25T05:29:54.284Z,45.59
2024-04-25T05:32:56.805Z,45.56
2024-04-25T05:36:02.683Z,45.54
2024-04-25T05:39:05.059Z,45.55
2024-04-25T05:42:07.374Z,45.65
2024-04-25T05:45:09.742Z,45.68
2024-04-25T05:48:12.350Z,45.71
2024-04-25T05:51:14.754Z,45.72
2024-04-25T05:54:17.204Z,45.52
2024-04-25T05:57:19.614Z,45.35
2024-04-25T06:00:22.019Z,45.36
2024-04-25T06:03:24.514Z,45.35
2024-04-25T06:06:28.139Z,45.35
2024-04-25T06:09:30.528Z,45.44
2024-04-25T06:12:33.161Z,45.48
2024-04-25T06:15:35.735Z,45.50
2024-04-25T06:18:38.282Z,45.43
2024-04-25T06:21:40.631Z,45.42
2024-04-25T06:24:43.131Z,45.37
2024-04-25T06:27:48.063Z,45.59
2024-04-25T06:30:50.529Z,45.72
2024-04-25T06:34:02.174Z,45.57
2024-04-25T06:37:06.416Z,45.51
2024-04-25T06:40:09.352Z,45.61
2024-04-25T06:43:12.229Z,45.67
2024-04-25T06:46:14.606Z,45.75
2024-04-25T06:49:17.003Z,45.64
2024-04-25T06:52:21.509Z,45.61
2024-04-25T06:55:23.863Z,45.45
2024-04-25T06:58:26.229Z,45.40
2024-04-25T07:01:28.630Z,45.26
2024-04-25T07:04:31.056Z,45.07
2024-04-25T07:07:34.331Z,45.07
2024-04-25T07:10:36.903Z,44.78
2024-04-25T07:13:40.314Z,44.61
2024-04-25T07:16:42.792Z,44.39
2024-04-25T07:19:45.064Z,44.32
2024-04-25T07:22:47.524Z,44.25
2024-04-25T07:25:49.845Z,44.51
2024-04-25T07:28:52.211Z,44.16
2024-04-25T07:31:55.554Z,43.81
2024-04-25T07:34:57.916Z,43.55
2024-04-25T07:38:00.285Z,43.42
2024-04-25T07:41:02.711Z,43.32
2024-04-25T07:44:05.137Z,43.22
2024-04-25T07:47:09.674Z,43.09
2024-04-25T07:50:12.066Z,42.94
2024-04-25T07:53:14.498Z,42.81
2024-04-25T07:56:16.911Z,43.08
2024-04-25T07:59:19.427Z,42.49
2024-04-25T08:02:23.038Z,41.99
2024-04-25T08:05:25.654Z,42.32
2024-04-25T08:08:28.122Z,42.45
2024-04-25T08:11:30.528Z,42.25
2024-04-25T08:14:32.904Z,42.06
2024-04-25T08:17:35.481Z,42.05
2024-04-25T08:20:37.915Z,42.03
2024-04-25T08:23:40.347Z,41.92
2024-04-25T08:26:42.753Z,41.94
2024-04-25T08:29:45.242Z,41.94
2024-04-25T08:32:48.137Z,41.82
2024-04-25T08:35:50.620Z,41.71
2024-04-25T08:38:53.219Z,41.39
2024-04-25T08:41:56.319Z,41.18
2024-04-25T08:44:58.665Z,41.08
2024-04-25T08:48:01.945Z,41.07
2024-04-25T08:51:04.864Z,41.04
2024-04-25T08:54:08.626Z,41.07
2024-04-25T08:57:11.055Z,41.11
2024-04-25T09:00:14.339Z,41.22
2024-04-25T09:03:17.896Z,41.13
2024-04-25T09:06:20.485Z,41.02
2024-04-25T09:09:24.212Z,41.07
2024-04-25T09:12:33.490Z,41.56
2024-04-25T09:15:36.455Z,42.31
2024-04-25T09:18:38.795Z,42.94
2024-04-25T09:21:42.647Z,42.83
2024-04-25T09:24:45.122Z,42.95
2024-04-25T09:27:47.815Z,43.00
2024-04-25T09:30:50.721Z,43.03
2024-04-25T09:33:57.893Z,43.08
2024-04-25T09:37:01.344Z,43.21
2024-04-25T09:40:06.344Z,43.17
2024-04-25T09:43:09.271Z,43.10
2024-04-25T09:46:16.378Z,42.64
2024-04-25T09:49:36.505Z,42.14
2024-04-25T09:53:21.119Z,42.55
2024-04-25T09:56:29.645Z,42.54
2024-04-25T09:59:52.676Z,42.11
2024-04-25T10:02:55.757Z,42.11
2024-04-25T10:05:58.552Z,42.29
2024-04-25T10:09:01.150Z,42.50
2024-04-25T10:12:06.076Z,42.58
2024-04-25T10:15:08.783Z,42.57
2024-04-25T10:18:11.352Z,42.55
2024-04-25T10:21:13.790Z,42.77
2024-04-25T10:24:16.431Z,42.77
2024-04-25T10:27:19.911Z,42.61
2024-04-25T10:30:22.199Z,42.59
2024-04-25T10:33:24.938Z,42.63
2024-04-25T10:36:32.028Z,42.57
2024-04-25T10:39:34.388Z,42.53
2024-04-25T10:42:36.749Z,42.68
2024-04-25T10:45:39.299Z,42.64
2024-04-25T10:48:43.260Z,42.53
2024-04-25T10:51:45.727Z,42.52
2024-04-25T10:54:48.287Z,42.52
2024-04-25T10:57:50.821Z,42.64
2024-04-25T11:00:53.686Z,42.62
2024-04-25T11:04:00.598Z,42.67
2024-04-25T11:07:06.916Z,42.72
2024-04-25T11:10:10.309Z,42.71
2024-04-25T11:13:13.095Z,42.81
2024-04-25T11:16:15.926Z,42.63
2024-04-25T11:19:23.478Z,42.35
2024-04-25T11:22:41.656Z,42.26
2024-04-25T11:25:51.292Z,42.68
2024-04-25T11:28:55.569Z,42.91
2024-04-25T11:31:57.966Z,43.19
2024-04-25T11:35:10.205Z,43.16
2024-04-25T11:38:13.428Z,43.19
2024-04-25T11:41:15.794Z,43.55
2024-04-25T11:44:18.376Z,43.34
2024-04-25T11:47:22.145Z,44.10
2024-04-25T11:50:24.665Z,43.59
2024-04-25T11:53:27.145Z,43.54
2024-04-25T11:56:31.387Z,43.48
2024-04-25T11:59:33.871Z,43.48
2024-04-25T12:02:36.349Z,43.45
2024-04-25T12:05:38.692Z,43.64
2024-04-25T12:08:44.668Z,43.84
2024-04-25T12:11:51.076Z,43.43
2024-04-25T12:14:55.211Z,43.31
2024-04-25T12:17:57.748Z,43.45
2024-04-25T12:21:02.422Z,43.52
2024-04-25T12:24:04.842Z,43.61
2024-04-25T12:27:07.195Z,43.54
2024-04-25T12:30:09.758Z,43.56
2024-04-25T12:33:12.331Z,43.74
2024-04-25T12:36:18.161Z,43.83
2024-04-25T12:39:23.349Z,43.86
2024-04-25T12:42:28.693Z,43.96
2024-04-25T12:45:37.579Z,44.02
2024-04-25T12:48:40.550Z,43.76
2024-04-25T12:51:43.078Z,43.67
2024-04-25T12:54:45.505Z,43.71
2024-04-25T12:57:49.226Z,43.65
2024-04-25T13:00:51.760Z,43.82
2024-04-25T13:03:54.230Z,43.83
2024-04-25T13:06:56.726Z,43.70
2024-04-25T13:09:59.087Z,43.50
2024-04-25T13:13:01.576Z,43.48
2024-04-25T13:16:04.045Z,43.44
2024-04-25T13:19:06.921Z,43.43
2024-04-25T13:22:09.458Z,43.54
2024-04-25T13:25:11.785Z,43.87
2024-04-25T13:28:15.167Z,44.00
2024-04-25T13:31:18.042Z,44.00
2024-04-25T13:34:23.311Z,44.00
2024-04-25T13:37:25.886Z,44.06
2024-04-25T13:40:28.139Z,44.16
2024-04-25T13:43:30.581Z,44.32
2024-04-25T13:46:35.092Z,44.54
2024-04-25T13:49:37.857Z,44.71
2024-04-25T13:52:41.325Z,44.71
2024-04-25T13:55:43.693Z,44.58
2024-04-25T13:58:47.787Z,38.40
2024-04-25T14:01:50.384Z,32.71
2024-04-25T14:04:52.820Z,32.94
2024-04-25T14:07:56.059Z,35.63
2024-04-25T14:10:59.938Z,37.69
2024-04-25T14:14:04.512Z,39.36
2024-04-25T14:17:06.987Z,40.10
2024-04-25T14:20:10.258Z,40.59
2024-04-25T14:23:12.945Z,41.01
2024-04-25T14:26:33.954Z,39.73
2024-04-25T14:29:38.913Z,40.66
2024-04-25T14:32:41.519Z,40.97
2024-04-25T14:35:44.651Z,41.53
2024-04-25T14:38:50.284Z,41.90
2024-04-25T14:41:52.786Z,42.15
2024-04-25T14:44:55.182Z,42.30
2024-04-25T14:47:57.895Z,42.54
2024-04-25T14:51:00.547Z,42.61
2024-04-25T14:54:02.944Z,42.81
2024-04-25T14:57:05.316Z,42.74
2024-04-25T15:00:08.813Z,42.94
2024-04-25T15:03:11.178Z,42.30
2024-04-25T15:06:13.585Z,41.72
2024-04-25T15:09:15.946Z,42.29
2024-04-25T15:12:18.469Z,42.52
2024-04-25T15:15:22.711Z,42.63
2024-04-25T15:18:25.701Z,42.67
2024-04-25T15:21:29.736Z,42.57
2024-04-25T15:24:32.178Z,42.70
2024-04-25T15:27:35.441Z,42.82
2024-04-25T15:30:39.657Z,42.98
2024-04-25T15:33:42.196Z,43.06
2024-04-25T15:36:44.715Z,43.10
2024-04-25T15:39:49.687Z,43.33
2024-04-25T15:42:52.110Z,43.34
2024-04-25T15:45:54.552Z,43.43
2024-04-25T15:48:57.058Z,43.45
2024-04-25T15:51:59.697Z,43.48
2024-04-25T15:55:02.891Z,43.52
2024-04-25T15:58:05.348Z,43.59
2024-04-25T16:01:07.759Z,43.59
2024-04-25T16:04:11.596Z,43.59
2024-04-25T16:07:14.140Z,43.49
2024-04-25T16:10:16.490Z,43.62
2024-04-25T16:13:21.546Z,43.82
2024-04-25T16:16:27.179Z,44.14
2024-04-25T16:19:30.847Z,44.21
2024-04-25T16:22:36.786Z,44.29
2024-04-25T16:25:48.429Z,44.39
2024-04-25T16:28:51.324Z,44.46
2024-04-25T16:31:56.820Z,44.53
2024-04-25T16:34:59.148Z,44.45
2024-04-25T16:38:01.526Z,44.50
2024-04-25T16:41:06.768Z,44.57
2024-04-25T16:44:09.185Z,44.67
2024-04-25T16:47:12.940Z,44.55
2024-04-25T16:50:15.614Z,44.35
2024-04-25T16:53:19.260Z,44.37
2024-04-25T16:56:21.704Z,44.45
2024-04-25T16:59:24.028Z,44.57
2024-04-25T17:02:26.559Z,44.66
2024-04-25T17:05:29.378Z,44.63
2024-04-25T17:08:31.776Z,44.59
2024-04-25T17:11:34.268Z,44.61
2024-04-25T17:14:36.863Z,44.63
2024-04-25T17:17:39.996Z,44.64
2024-04-25T17:20:42.415Z,44.65
2024-04-25T17:23:51.799Z,44.69
2024-04-25T17:26:54.401Z,44.70
2024-04-25T17:29:59.273Z,44.71
2024-04-25T17:33:01.949Z,44.69
2024-04-25T17:36:05.143Z,44.69
2024-04-25T17:39:07.620Z,44.70
2024-04-25T17:42:10.048Z,44.69
2024-04-25T17:45:12.465Z,44.72
2024-04-25T17:48:16.591Z,44.73
2024-04-25T17:51:22.979Z,44.70
2024-04-25T17:54:25.318Z,44.72
2024-04-25T17:57:27.837Z,44.74
2024-04-25T18:00:30.115Z,44.80
2024-04-25T18:03:32.740Z,44.75
2024-04-25T18:06:35.307Z,44.79
2024-04-25T18:09:37.852Z,44.82
2024-04-25T18:12:40.293Z,44.83
2024-04-25T18:15:42.775Z,44.85
2024-04-25T18:18:45.459Z,44.93
2024-04-25T18:21:48.575Z,44.99
2024-04-25T18:24:51.500Z,44.67
2024-04-25T18:27:53.906Z,44.74
2024-04-25T18:30:56.421Z,44.78
2024-04-25T18:34:00.422Z,44.83
2024-04-25T18:37:02.822Z,44.93
2024-04-25T18:40:05.993Z,45.01
2024-04-25T18:43:08.411Z,45.06
2024-04-25T18:46:10.758Z,45.22
2024-04-25T18:49:13.265Z,45.38
2024-04-25T18:52:15.958Z,45.35
2024-04-25T18:55:18.282Z,45.40
2024-04-25T18:58:20.652Z,45.52
2024-04-25T19:01:23.074Z,45.63
2024-04-25T19:04:25.408Z,45.73
2024-04-25T19:07:27.870Z,45.75
2024-04-25T19:10:30.241Z,45.84
2024-04-25T19:13:32.659Z,45.80
2024-04-25T19:16:35.015Z,45.87
2024-04-25T19:19:39.365Z,45.82
2024-04-25T19:22:41.835Z,45.84
2024-04-25T19:25:44.151Z,45.73
2024-04-25T19:28:46.505Z,45.80
2024-04-25T19:31:50.482Z,45.72
2024-04-25T19:34:53.504Z,45.67
2024-04-25T19:37:56.004Z,45.68
2024-04-25T19:40:59.689Z,45.72
2024-04-25T19:44:02.082Z,45.61
2024-04-25T19:47:04.698Z,45.51
2024-04-25T19:50:08.086Z,45.54
2024-04-25T19:53:10.868Z,45.54
2024-04-25T19:56:14.446Z,45.51
2024-04-25T19:59:17.692Z,45.56
2024-04-25T20:02:22.592Z,45.55
2024-04-25T20:05:25.152Z,45.56
2024-04-25T20:08:27.527Z,45.60
2024-04-25T20:11:29.941Z,45.53
2024-04-25T20:14:32.532Z,45.68
2024-04-25T20:17:53.873Z,45.68
2024-04-25T20:21:08.881Z,45.65
2024-04-25T20:24:11.519Z,45.64
2024-04-25T20:27:13.947Z,45.61
2024-04-25T20:30:16.483Z,45.57
2024-04-25T20:33:21.134Z,45.61
2024-04-25T20:36:23.606Z,45.65
2024-04-25T20:39:26.040Z,45.67
2024-04-25T20:42:28.865Z,45.64
2024-04-25T20:45:31.264Z,45.64
2024-04-25T20:48:33.767Z,45.62
2024-04-25T20:51:40.945Z,45.64
2024-04-25T20:54:44.401Z,45.64
2024-04-25T20:57:47.001Z,45.63
2024-04-25T21:00:49.473Z,45.64
2024-04-25T21:03:51.919Z,45.61
2024-04-25T21:06:54.331Z,45.66
2024-04-25T21:09:56.876Z,45.67
2024-04-25T21:12:59.690Z,45.66
2024-04-25T21:16:02.131Z,45.54
2024-04-25T21:19:04.472Z,45.61
2024-04-25T21:22:06.741Z,45.66
2024-04-25T21:25:09.474Z,45.63
2024-04-25T21:28:14.240Z,45.61
2024-04-25T21:31:18.142Z,45.61
2024-04-25T21:34:21.352Z,45.65
2024-04-25T21:37:23.672Z,45.64
2024-04-25T21:40:27.609Z,45.59
2024-04-25T21:43:30.332Z,45.68
2024-04-25T21:46:33.119Z,45.62
2024-04-25T21:49:35.459Z,45.61
2024-04-25T21:52:37.952Z,45.72
2024-04-25T21:55:40.383Z,45.70
2024-04-25T21:58:42.701Z,45.59
2024-04-25T22:01:55.647Z,45.66
2024-04-25T22:04:58.189Z,45.71
2024-04-25T22:08:00.484Z,45.70
2024-04-25T22:11:02.801Z,45.61
2024-04-25T22:14:05.247Z,45.63
2024-04-25T22:17:07.836Z,45.80
2024-04-25T22:20:10.306Z,45.65
2024-04-25T22:23:12.720Z,45.71
2024-04-25T22:26:15.101Z,45.65
2024-04-25T22:29:17.510Z,45.56
2024-04-25T22:32:19.880Z,45.64
2024-04-25T22:35:22.375Z,45.64
2024-04-25T22:38:24.821Z,45.61
2024-04-25T22:41:27.155Z,45.65
2024-04-25T22:44:30.380Z,45.67
2024-04-25T22:47:33.008Z,45.70
2024-04-25T22:50:35.512Z,45.70
2024-04-25T22:53:37.992Z,45.67
2024-04-25T22:56:40.383Z,45.69
2024-04-25T22:59:42.792Z,45.70
2024-04-25T23:02:46.300Z,45.61
2024-04-25T23:05:49.779Z,45.67
2024-04-25T23:08:52.250Z,45.73
2024-04-25T23:11:54.980Z,45.73
2024-04-25T23:14:57.902Z,45.75
2024-04-25T23:18:00.378Z,45.79
2024-04-25T23:21:04.677Z,45.77
2024-04-25T23:24:08.001Z,45.73
2024-04-25T23:27:10.451Z,45.78
2024-04-25T23:30:12.819Z,45.78
2024-04-25T23:33:15.674Z,45.73
2024-04-25T23:36:18.154Z,45.80
2024-04-25T23:39:20.585Z,45.79
2024-04-25T23:42:22.892Z,45.84
2024-04-25T23:45:25.279Z,45.75
2024-04-25T23:48:27.701Z,45.86
2024-04-25T23:51:30.542Z,45.83
2024-04-25T23:54:32.912Z,45.86
2024-04-25T23:57:35.323Z,45.89
